createdAt,value
2023-04-26T00:04:41.598Z,10.63
2023-04-26T00:10:03.448Z,10.58
2023-04-26T00:15:25.424Z,10.54
2023-04-26T00:20:47.418Z,10.48
2023-04-26T00:26:09.409Z,10.39
2023-04-26T00:31:31.476Z,10.36
2023-04-26T00:36:53.409Z,10.34
2023-04-26T00:42:15.425Z,10.28
2023-04-26T00:47:37.460Z,10.22
2023-04-26T00:53:00.417Z,10.16
2023-04-26T00:58:22.398Z,10.13
2023-04-26T01:03:44.582Z,10.09
2023-04-26T01:09:08.442Z,10.01
2023-04-26T01:14:31.413Z,9.94
2023-04-26T01:19:54.411Z,9.90
2023-04-26T01:25:18.433Z,9.87
2023-04-26T01:30:40.410Z,9.82
2023-04-26T01:36:02.391Z,9.79
2023-04-26T01:41:24.389Z,9.77
2023-04-26T01:46:48.449Z,9.72
2023-04-26T01:52:10.394Z,9.69
2023-04-26T01:57:34.399Z,9.65
2023-04-26T02:02:56.458Z,9.60
2023-04-26T02:08:18.374Z,9.52
2023-04-26T02:13:40.398Z,9.45
2023-04-26T02:19:02.407Z,9.38
2023-04-26T02:24:24.383Z,9.34
2023-04-26T02:29:46.372Z,9.28
2023-04-26T02:35:08.395Z,9.23
2023-04-26T02:40:30.375Z,9.21
2023-04-26T02:45:52.385Z,9.19
2023-04-26T02:51:14.380Z,9.14
2023-04-26T02:56:36.389Z,9.10
2023-04-26T03:01:58.402Z,9.03
2023-04-26T03:07:20.364Z,8.98
2023-04-26T03:12:42.366Z,8.93
2023-04-26T03:18:04.427Z,8.87
2023-04-26T03:23:26.378Z,8.84
2023-04-26T03:28:48.355Z,8.78
2023-04-26T03:34:10.347Z,8.72
2023-04-26T03:39:33.339Z,8.71
2023-04-26T03:44:55.370Z,8.67
2023-04-26T03:50:17.372Z,8.61
2023-04-26T03:55:39.362Z,8.52
2023-04-26T04:01:05.329Z,8.48
2023-04-26T04:06:27.375Z,8.45
2023-04-26T04:11:49.340Z,8.45
2023-04-26T04:17:11.340Z,8.40
2023-04-26T04:22:33.336Z,8.35
2023-04-26T04:27:56.332Z,8.32
2023-04-26T04:33:18.315Z,8.23
2023-04-26T04:38:40.330Z,8.22
2023-04-26T04:44:04.338Z,8.25
2023-04-26T04:49:26.334Z,8.23
2023-04-26T04:54:48.315Z,8.24
2023-04-26T05:00:16.334Z,8.27
2023-04-26T05:05:43.315Z,8.31
2023-04-26T05:11:05.318Z,8.32
2023-04-26T05:16:27.331Z,8.34
2023-04-26T05:21:51.312Z,8.34
2023-04-26T05:27:13.327Z,8.37
2023-04-26T05:32:41.339Z,8.46
2023-04-26T05:38:21.326Z,8.54
2023-04-26T05:43:43.324Z,8.60
2023-04-26T05:49:05.310Z,8.65
2023-04-26T05:54:28.313Z,8.73
2023-04-26T05:59:51.342Z,8.74
2023-04-26T06:05:15.470Z,8.80
2023-04-26T06:10:37.329Z,8.85
2023-04-26T06:15:59.318Z,8.88
2023-04-26T06:21:21.343Z,8.86
2023-04-26T06:26:43.310Z,8.88
2023-04-26T06:32:05.316Z,8.88
2023-04-26T06:37:27.310Z,8.93
2023-04-26T06:42:49.275Z,8.95
2023-04-26T06:48:26.283Z,8.96
2023-04-26T06:53:48.305Z,8.97
2023-04-26T06:59:14.294Z,9.01
2023-04-26T07:04:43.453Z,9.00
2023-04-26T07:10:05.291Z,9.09
2023-04-26T07:15:27.306Z,9.26
2023-04-26T07:20:49.321Z,9.42
2023-04-26T07:26:11.298Z,9.63
2023-04-26T07:31:33.284Z,9.72
2023-04-26T07:36:55.304Z,9.87
2023-04-26T07:42:17.282Z,9.96
2023-04-26T07:47:39.321Z,10.00
2023-04-26T07:53:01.281Z,10.07
2023-04-26T07:58:23.285Z,10.22
2023-04-26T08:03:45.646Z,10.36
2023-04-26T08:09:07.290Z,10.48
2023-04-26T08:14:29.354Z,10.49
2023-04-26T08:19:51.262Z,10.57
2023-04-26T08:25:13.273Z,10.69
2023-04-26T08:30:35.308Z,10.78
2023-04-26T08:35:57.268Z,10.89
2023-04-26T08:41:21.287Z,10.93
2023-04-26T08:47:13.239Z,10.91
2023-04-26T08:52:35.272Z,10.94
2023-04-26T08:57:57.253Z,11.00
2023-04-26T09:03:19.377Z,11.10
2023-04-26T09:08:45.257Z,11.19
2023-04-26T09:14:07.250Z,11.17
2023-04-26T09:19:43.253Z,11.21
2023-04-26T09:25:05.281Z,11.36
2023-04-26T09:30:28.258Z,11.38
2023-04-26T09:35:54.250Z,11.33
2023-04-26T09:41:16.313Z,11.33
2023-04-26T09:46:38.343Z,11.28
2023-04-26T09:52:07.240Z,11.24
2023-04-26T09:57:31.229Z,11.32
2023-04-26T10:03:00.380Z,11.48
2023-04-26T10:08:23.269Z,11.44
2023-04-26T10:13:45.242Z,11.36
2023-04-26T10:19:07.249Z,11.43
2023-04-26T10:24:29.223Z,11.49
2023-04-26T10:30:03.217Z,11.54
2023-04-26T10:35:27.240Z,11.55
2023-04-26T10:40:49.234Z,11.66
2023-04-26T10:46:11.273Z,11.87
2023-04-26T10:51:33.210Z,12.16
2023-04-26T10:56:55.222Z,12.29
2023-04-26T11:02:17.228Z,12.27
2023-04-26T11:07:52.207Z,12.31
2023-04-26T11:13:14.229Z,12.32
2023-04-26T11:18:37.225Z,12.32
2023-04-26T11:24:00.204Z,12.33
2023-04-26T11:29:22.229Z,12.44
2023-04-26T11:34:45.220Z,12.51
2023-04-26T11:40:07.241Z,12.63
2023-04-26T11:45:29.391Z,12.68
2023-04-26T11:50:52.255Z,12.57
2023-04-26T11:56:28.214Z,12.67
2023-04-26T12:01:50.368Z,12.80
2023-04-26T12:07:13.250Z,12.98
2023-04-26T12:12:37.242Z,13.00
2023-04-26T12:18:04.289Z,12.95
2023-04-26T12:23:28.245Z,12.97
2023-04-26T12:28:50.227Z,13.00
2023-04-26T12:34:12.195Z,13.10
2023-04-26T12:39:34.209Z,13.05
2023-04-26T12:44:56.216Z,13.16
2023-04-26T12:50:19.238Z,13.16
2023-04-26T12:55:41.265Z,13.23
2023-04-26T13:01:03.526Z,13.41
2023-04-26T13:06:25.497Z,13.59
2023-04-26T13:11:47.216Z,13.79
2023-04-26T13:17:09.392Z,13.88
2023-04-26T13:22:31.210Z,13.87
2023-04-26T13:27:53.223Z,13.92
2023-04-26T13:33:15.246Z,14.02
2023-04-26T13:38:44.228Z,13.94
2023-04-26T13:44:07.237Z,13.99
2023-04-26T13:49:29.260Z,13.85
2023-04-26T13:54:51.211Z,13.83
2023-04-26T14:00:13.204Z,13.89
2023-04-26T14:05:42.217Z,13.93
2023-04-26T14:11:04.195Z,14.00
2023-04-26T14:16:26.261Z,14.16
2023-04-26T14:21:49.212Z,14.16
2023-04-26T14:27:11.203Z,14.33
2023-04-26T14:32:33.217Z,14.57
2023-04-26T14:37:55.198Z,14.68
2023-04-26T14:43:17.172Z,14.77
2023-04-26T14:48:39.165Z,15.00
2023-04-26T14:54:01.225Z,15.11
2023-04-26T14:59:23.193Z,15.10
2023-04-26T15:04:52.332Z,15.05
2023-04-26T15:10:15.163Z,15.16
2023-04-26T15:15:37.438Z,15.36
2023-04-26T15:20:59.462Z,15.39
2023-04-26T15:26:21.450Z,15.46
2023-04-26T15:31:43.257Z,15.45
2023-04-26T15:37:05.168Z,15.52
2023-04-26T15:42:27.160Z,15.63
2023-04-26T15:47:49.193Z,15.68
2023-04-26T15:53:11.226Z,15.74
2023-04-26T15:58:33.295Z,15.89
2023-04-26T16:04:02.241Z,15.97
2023-04-26T16:09:26.248Z,16.12
2023-04-26T16:14:48.175Z,16.26
2023-04-26T16:20:12.225Z,16.36
2023-04-26T16:25:34.194Z,16.32
2023-04-26T16:30:56.191Z,16.26
2023-04-26T16:36:18.186Z,16.18
2023-04-26T16:41:40.172Z,16.03
2023-04-26T16:47:02.172Z,16.03
2023-04-26T16:52:24.189Z,15.97
2023-04-26T16:57:46.296Z,15.86
2023-04-26T17:03:15.380Z,15.81
2023-04-26T17:08:37.135Z,15.83
2023-04-26T17:13:59.132Z,15.87
2023-04-26T17:19:21.140Z,15.82
2023-04-26T17:24:43.136Z,15.74
2023-04-26T17:30:05.233Z,15.66
2023-04-26T17:35:27.159Z,15.55
2023-04-26T17:40:49.163Z,15.43
2023-04-26T17:46:11.231Z,15.34
2023-04-26T17:51:33.238Z,15.20
2023-04-26T17:56:55.147Z,15.12
2023-04-26T18:02:17.258Z,15.05
2023-04-26T18:07:39.132Z,14.93
2023-04-26T18:13:01.118Z,14.83
2023-04-26T18:18:24.574Z,14.73
2023-04-26T18:23:47.128Z,14.62
2023-04-26T18:29:09.130Z,14.49
2023-04-26T18:34:31.127Z,14.36
2023-04-26T18:39:53.101Z,14.21
2023-04-26T18:45:15.116Z,14.11
2023-04-26T18:50:37.128Z,14.00
2023-04-26T18:56:02.133Z,13.87
2023-04-26T19:01:24.197Z,13.71
2023-04-26T19:06:54.126Z,13.55
2023-04-26T19:12:16.153Z,13.48
2023-04-26T19:17:40.143Z,13.38
2023-04-26T19:23:02.161Z,13.27
2023-04-26T19:28:24.124Z,13.11
2023-04-26T19:33:47.120Z,12.97
2023-04-26T19:39:09.114Z,12.85
2023-04-26T19:44:31.095Z,12.69
2023-04-26T19:49:54.108Z,12.54
2023-04-26T19:55:17.153Z,12.40
2023-04-26T20:00:42.142Z,12.31
2023-04-26T20:06:11.177Z,12.24
2023-04-26T20:11:33.118Z,12.17
2023-04-26T20:16:55.139Z,12.06
2023-04-26T20:22:17.117Z,11.97
2023-04-26T20:27:39.089Z,11.90
2023-04-26T20:33:01.176Z,11.89
2023-04-26T20:38:23.093Z,11.87
2023-04-26T20:43:45.078Z,11.81
2023-04-26T20:49:07.177Z,11.77
2023-04-26T20:54:29.112Z,11.78
2023-04-26T20:59:51.089Z,11.75
2023-04-26T21:05:20.100Z,11.72
2023-04-26T21:10:57.107Z,11.68
2023-04-26T21:16:19.175Z,11.71
2023-04-26T21:21:41.076Z,11.71
2023-04-26T21:27:03.094Z,11.69
2023-04-26T21:32:25.108Z,11.65
2023-04-26T21:37:47.091Z,11.58
2023-04-26T21:43:09.106Z,11.54
2023-04-26T21:48:31.057Z,11.52
2023-04-26T21:53:53.073Z,11.47
2023-04-26T21:59:16.081Z,11.44
2023-04-26T22:04:38.079Z,11.40
2023-04-26T22:10:00.123Z,11.35
2023-04-26T22:15:22.117Z,11.31
2023-04-26T22:20:44.087Z,11.27
2023-04-26T22:26:07.064Z,11.26
2023-04-26T22:31:29.107Z,11.24
2023-04-26T22:36:51.068Z,11.22
2023-04-26T22:42:13.079Z,11.21
2023-04-26T22:47:35.082Z,11.20
2023-04-26T22:52:57.069Z,11.21
2023-04-26T22:58:19.083Z,11.20
2023-04-26T23:03:44.085Z,11.20
2023-04-26T23:09:06.059Z,11.19
2023-04-26T23:14:28.059Z,11.20
2023-04-26T23:19:50.038Z,11.16
2023-04-26T23:25:12.070Z,11.12
2023-04-26T23:30:34.058Z,11.07
2023-04-26T23:35:56.092Z,11.03
2023-04-26T23:41:18.078Z,10.99
2023-04-26T23:46:40.105Z,10.96
2023-04-26T23:52:02.034Z,10.94
2023-04-26T23:57:24.053Z,10.94
